McHenry, North Dakota
Current Conditions -  °F | °C
As of 6:35 AM on Monday 24 Nov 2014 (Local Time) from K46D Reporting Station
Clear Clear  
Wind Chill: -13°   Ceiling: Unl
Heat Index:   Visibility: 10mi
Dew Point:   Wind: 20mph
Humidity: 92%   Direction: 320°NW
Pressure: 29.74"   Gusts: 29mph
Location:  47.58°N, 98.59°W
Report Text: K46D 241235Z AUTO 32017G25KT 10SM CLR M14/M15 A2974 RMK AO2
Loading
Personal Weather Stations






























Interactive Weather Map New forecast layout! Learn more

10-Day Weather Forecast

Advertisements
Track Severe Weather on mobile